sensor_id;sensor_type;location;lat;lon;timestamp;temperature;humidity
1578;DHT22;57623;53.608;10.004;2022-07-12T00:00:05;15.70;99.90
1578;DHT22;57623;53.608;10.004;2022-07-12T00:03:37;15.60;99.90
1578;DHT22;57623;53.608;10.004;2022-07-12T00:06:38;15.60;99.90
1578;DHT22;57623;53.608;10.004;2022-07-12T00:09:54;15.50;99.90
1578;DHT22;57623;53.608;10.004;2022-07-12T00:13:13;15.50;99.90
1578;DHT22;57623;53.608;10.004;2022-07-12T00:16:09;15.50;99.90
1578;DHT22;57623;53.608;10.004;2022-07-12T00:19:10;15.50;99.90
1578;DHT22;57623;53.608;10.004;2022-07-12T00:22:18;15.50;99.90
1578;DHT22;57623;53.608;10.004;2022-07-12T00:25:09;15.40;99.90
1578;DHT22;57623;53.608;10.004;2022-07-12T00:28:37;15.40;99.90
1578;DHT22;57623;53.608;10.004;2022-07-12T00:38:32;15.30;99.90
1578;DHT22;57623;53.608;10.004;2022-07-12T00:41:22;15.30;99.90
1578;DHT22;57623;53.608;10.004;2022-07-12T00:45:06;15.20;99.90
1578;DHT22;57623;53.608;10.004;2022-07-12T00:48:00;15.20;99.90
1578;DHT22;57623;53.608;10.004;2022-07-12T00:51:03;15.20;99.90
1578;DHT22;57623;53.608;10.004;2022-07-12T00:53:56;15.20;99.90
1578;DHT22;57623;53.608;10.004;2022-07-12T00:56:54;15.10;99.90
1578;DHT22;57623;53.608;10.004;2022-07-12T00:59:52;15.10;99.90
1578;DHT22;57623;53.608;10.004;2022-07-12T01:03:12;15.10;99.90
1578;DHT22;57623;53.608;10.004;2022-07-12T01:06:51;15.00;99.90
1578;DHT22;57623;53.608;10.004;2022-07-12T01:10:03;15.00;99.90
1578;DHT22;57623;53.608;10.004;2022-07-12T01:13:51;15.00;99.90
1578;DHT22;57623;53.608;10.004;2022-07-12T01:16:34;15.00;99.90
1578;DHT22;57623;53.608;10.004;2022-07-12T01:19:31;14.90;99.90
1578;DHT22;57623;53.608;10.004;2022-07-12T01:22:30;14.90;99.90
1578;DHT22;57623;53.608;10.004;2022-07-12T01:25:24;14.80;99.90
1578;DHT22;57623;53.608;10.004;2022-07-12T01:28:16;14.80;99.90
1578;DHT22;57623;53.608;10.004;2022-07-12T01:31:24;14.80;99.90
1578;DHT22;57623;53.608;10.004;2022-07-12T01:34:22;14.70;99.90
1578;DHT22;57623;53.608;10.004;2022-07-12T01:37:23;14.70;99.90
1578;DHT22;57623;53.608;10.004;2022-07-12T01:40:49;14.70;99.90
1578;DHT22;57623;53.608;10.004;2022-07-12T01:44:07;14.60;99.90
1578;DHT22;57623;53.608;10.004;2022-07-12T01:46:59;14.60;99.90
1578;DHT22;57623;53.608;10.004;2022-07-12T01:50:18;14.60;99.90
1578;DHT22;57623;53.608;10.004;2022-07-12T01:53:19;14.50;99.90
1578;DHT22;57623;53.608;10.004;2022-07-12T01:56:18;14.50;99.90
1578;DHT22;57623;53.608;10.004;2022-07-12T01:59:31;14.40;99.90
1578;DHT22;57623;53.608;10.004;2022-07-12T02:06:11;14.40;99.90
1578;DHT22;57623;53.608;10.004;2022-07-12T02:09:19;14.40;99.90
1578;DHT22;57623;53.608;10.004;2022-07-12T02:12:21;14.30;99.90
1578;DHT22;57623;53.608;10.004;2022-07-12T02:15:15;14.30;99.90
1578;DHT22;57623;53.608;10.004;2022-07-12T02:18:31;14.30;99.90
1578;DHT22;57623;53.608;10.004;2022-07-12T02:21:26;14.20;99.90
1578;DHT22;57623;53.608;10.004;2022-07-12T02:24:14;14.20;99.90
1578;DHT22;57623;53.608;10.004;2022-07-12T02:27:11;14.20;99.90
1578;DHT22;57623;53.608;10.004;2022-07-12T02:30:23;14.20;99.90
1578;DHT22;57623;53.608;10.004;2022-07-12T02:33:59;14.20;99.90
1578;DHT22;57623;53.608;10.004;2022-07-12T02:36:47;14.10;99.90
1578;DHT22;57623;53.608;10.004;2022-07-12T02:39:35;14.10;99.90
1578;DHT22;57623;53.608;10.004;2022-07-12T02:42:51;14.10;99.90
1578;DHT22;57623;53.608;10.004;2022-07-12T02:49:33;14.00;99.90
1578;DHT22;57623;53.608;10.004;2022-07-12T02:52:40;14.00;99.90
1578;DHT22;57623;53.608;10.004;2022-07-12T02:56:33;14.00;99.90
1578;DHT22;57623;53.608;10.004;2022-07-12T02:59:35;13.90;99.90
1578;DHT22;57623;53.608;10.004;2022-07-12T03:02:27;13.90;99.90
1578;DHT22;57623;53.608;10.004;2022-07-12T03:05:26;13.90;99.90
1578;DHT22;57623;53.608;10.004;2022-07-12T03:09:11;13.90;99.90
1578;DHT22;57623;53.608;10.004;2022-07-12T03:12:06;13.80;99.90
1578;DHT22;57623;53.608;10.004;2022-07-12T03:15:15;13.80;99.90
1578;DHT22;57623;53.608;10.004;2022-07-12T03:18:31;13.80;99.90
1578;DHT22;57623;53.608;10.004;2022-07-12T03:21:21;13.80;99.90
1578;DHT22;57623;53.608;10.004;2022-07-12T03:24:12;13.80;99.90
1578;DHT22;57623;53.608;10.004;2022-07-12T03:27:06;13.80;99.90
1578;DHT22;57623;53.608;10.004;2022-07-12T03:30:05;13.70;99.90
1578;DHT22;57623;53.608;10.004;2022-07-12T03:33:12;13.70;99.90
1578;DHT22;57623;53.608;10.004;2022-07-12T03:36:14;13.70;99.90
1578;DHT22;57623;53.608;10.004;2022-07-12T03:39:31;13.70;99.90
1578;DHT22;57623;53.608;10.004;2022-07-12T03:42:26;13.70;99.90
1578;DHT22;57623;53.608;10.004;2022-07-12T03:45:16;13.70;99.90
1578;DHT22;57623;53.608;10.004;2022-07-12T03:48:05;13.70;99.90
1578;DHT22;57623;53.608;10.004;2022-07-12T03:51:06;13.70;99.90
1578;DHT22;57623;53.608;10.004;2022-07-12T03:54:29;13.70;99.90
1578;DHT22;57623;53.608;10.004;2022-07-12T03:57:52;13.70;99.90
1578;DHT22;57623;53.608;10.004;2022-07-12T04:01:15;13.80;99.90
1578;DHT22;57623;53.608;10.004;2022-07-12T04:04:28;13.80;99.90
1578;DHT22;57623;53.608;10.004;2022-07-12T04:07:32;13.80;99.90
1578;DHT22;57623;53.608;10.004;2022-07-12T04:11:14;13.80;99.90
1578;DHT22;57623;53.608;10.004;2022-07-12T04:14:28;13.90;99.90
1578;DHT22;57623;53.608;10.004;2022-07-12T04:17:37;13.90;99.90
1578;DHT22;57623;53.608;10.004;2022-07-12T04:20:39;13.90;99.90
1578;DHT22;57623;53.608;10.004;2022-07-12T04:23:54;14.00;99.90
1578;DHT22;57623;53.608;10.004;2022-07-12T04:27:16;14.00;99.90
1578;DHT22;57623;53.608;10.004;2022-07-12T04:30:44;14.00;99.90
1578;DHT22;57623;53.608;10.004;2022-07-12T04:34:13;14.10;99.90
1578;DHT22;57623;53.608;10.004;2022-07-12T04:37:12;14.10;99.90
1578;DHT22;57623;53.608;10.004;2022-07-12T04:40:17;14.10;99.90
1578;DHT22;57623;53.608;10.004;2022-07-12T04:43:24;14.20;99.90
1578;DHT22;57623;53.608;10.004;2022-07-12T04:46:32;14.20;99.90
1578;DHT22;57623;53.608;10.004;2022-07-12T04:49:39;14.30;99.90
1578;DHT22;57623;53.608;10.004;2022-07-12T04:52:30;14.30;99.90
1578;DHT22;57623;53.608;10.004;2022-07-12T04:55:31;14.40;99.90
1578;DHT22;57623;53.608;10.004;2022-07-12T04:59:05;14.50;99.90
1578;DHT22;57623;53.608;10.004;2022-07-12T05:02:08;14.50;99.90
1578;DHT22;57623;53.608;10.004;2022-07-12T05:05:00;14.60;99.90
1578;DHT22;57623;53.608;10.004;2022-07-12T05:11:19;14.60;99.90
1578;DHT22;57623;53.608;10.004;2022-07-12T05:14:38;14.70;99.90
1578;DHT22;57623;53.608;10.004;2022-07-12T05:17:31;14.80;99.90
1578;DHT22;57623;53.608;10.004;2022-07-12T05:20:38;14.90;99.90
1578;DHT22;57623;53.608;10.004;2022-07-12T05:23:40;15.00;99.90
1578;DHT22;57623;53.608;10.004;2022-07-12T05:26:51;15.00;99.90
1578;DHT22;57623;53.608;10.004;2022-07-12T05:30:02;15.10;99.90
1578;DHT22;57623;53.608;10.004;2022-07-12T05:32:58;15.10;99.90
1578;DHT22;57623;53.608;10.004;2022-07-12T05:35:57;15.20;99.90
1578;DHT22;57623;53.608;10.004;2022-07-12T05:38:51;15.30;99.90
1578;DHT22;57623;53.608;10.004;2022-07-12T05:41:59;15.30;99.90
1578;DHT22;57623;53.608;10.004;2022-07-12T05:45:19;15.30;99.90
1578;DHT22;57623;53.608;10.004;2022-07-12T05:49:10;15.40;99.90
1578;DHT22;57623;53.608;10.004;2022-07-12T05:52:18;15.50;99.90
1578;DHT22;57623;53.608;10.004;2022-07-12T05:55:35;15.50;99.90
1578;DHT22;57623;53.608;10.004;2022-07-12T05:58:32;15.60;99.90
1578;DHT22;57623;53.608;10.004;2022-07-12T06:01:30;15.60;99.90
1578;DHT22;57623;53.608;10.004;2022-07-12T06:04:23;15.70;99.90
1578;DHT22;57623;53.608;10.004;2022-07-12T06:07:11;15.70;99.90
1578;DHT22;57623;53.608;10.004;2022-07-12T06:10:07;15.80;99.90
1578;DHT22;57623;53.608;10.004;2022-07-12T06:12:55;15.90;99.90
1578;DHT22;57623;53.608;10.004;2022-07-12T06:15:58;15.90;99.90
1578;DHT22;57623;53.608;10.004;2022-07-12T06:18:51;16.00;99.90
1578;DHT22;57623;53.608;10.004;2022-07-12T06:21:41;16.10;99.90
1578;DHT22;57623;53.608;10.004;2022-07-12T06:24:41;16.20;99.90
1578;DHT22;57623;53.608;10.004;2022-07-12T06:27:30;16.20;99.90
1578;DHT22;57623;53.608;10.004;2022-07-12T06:30:21;16.30;99.90
1578;DHT22;57623;53.608;10.004;2022-07-12T06:33:14;16.30;99.90
1578;DHT22;57623;53.608;10.004;2022-07-12T06:36:04;16.40;99.90
1578;DHT22;57623;53.608;10.004;2022-07-12T06:38:52;16.40;99.90
1578;DHT22;57623;53.608;10.004;2022-07-12T06:41:43;16.50;99.90
1578;DHT22;57623;53.608;10.004;2022-07-12T06:44:32;16.50;99.90
1578;DHT22;57623;53.608;10.004;2022-07-12T06:47:22;16.60;99.90
1578;DHT22;57623;53.608;10.004;2022-07-12T06:50:13;16.70;99.90
1578;DHT22;57623;53.608;10.004;2022-07-12T06:53:05;16.70;99.90
1578;DHT22;57623;53.608;10.004;2022-07-12T06:55:53;16.80;99.90
1578;DHT22;57623;53.608;10.004;2022-07-12T06:58:44;16.80;99.90
1578;DHT22;57623;53.608;10.004;2022-07-12T07:01:37;16.90;99.90
1578;DHT22;57623;53.608;10.004;2022-07-12T07:04:30;16.90;99.90
1578;DHT22;57623;53.608;10.004;2022-07-12T07:07:32;17.00;99.90
1578;DHT22;57623;53.608;10.004;2022-07-12T07:10:28;17.10;99.90
1578;DHT22;57623;53.608;10.004;2022-07-12T07:13:16;17.10;99.90
1578;DHT22;57623;53.608;10.004;2022-07-12T07:16:05;17.10;99.90
1578;DHT22;57623;53.608;10.004;2022-07-12T07:18:55;17.20;99.90
1578;DHT22;57623;53.608;10.004;2022-07-12T07:21:44;17.20;99.90
1578;DHT22;57623;53.608;10.004;2022-07-12T07:24:32;17.30;99.90
1578;DHT22;57623;53.608;10.004;2022-07-12T07:27:22;17.40;99.90
1578;DHT22;57623;53.608;10.004;2022-07-12T07:30:11;17.40;99.90
1578;DHT22;57623;53.608;10.004;2022-07-12T07:33:19;17.40;99.90
1578;DHT22;57623;53.608;10.004;2022-07-12T07:36:08;17.40;99.90
1578;DHT22;57623;53.608;10.004;2022-07-12T07:38:57;17.40;99.90
1578;DHT22;57623;53.608;10.004;2022-07-12T07:41:46;17.50;99.90
1578;DHT22;57623;53.608;10.004;2022-07-12T07:44:35;17.60;99.90
1578;DHT22;57623;53.608;10.004;2022-07-12T07:47:45;17.60;99.90
1578;DHT22;57623;53.608;10.004;2022-07-12T07:50:53;17.70;99.90
1578;DHT22;57623;53.608;10.004;2022-07-12T07:53:44;17.80;99.90
1578;DHT22;57623;53.608;10.004;2022-07-12T07:56:32;17.90;99.90
1578;DHT22;57623;53.608;10.004;2022-07-12T07:59:22;17.90;99.90
1578;DHT22;57623;53.608;10.004;2022-07-12T08:05:21;18.10;99.90
1578;DHT22;57623;53.608;10.004;2022-07-12T08:08:15;18.10;99.90
1578;DHT22;57623;53.608;10.004;2022-07-12T08:11:03;18.10;99.90
1578;DHT22;57623;53.608;10.004;2022-07-12T08:13:56;18.20;99.90
1578;DHT22;57623;53.608;10.004;2022-07-12T08:16:46;18.20;99.90
1578;DHT22;57623;53.608;10.004;2022-07-12T08:19:40;18.30;99.90
1578;DHT22;57623;53.608;10.004;2022-07-12T08:22:30;18.30;99.90
1578;DHT22;57623;53.608;10.004;2022-07-12T08:25:21;18.30;99.90
1578;DHT22;57623;53.608;10.004;2022-07-12T08:28:09;18.30;99.90
1578;DHT22;57623;53.608;10.004;2022-07-12T08:30:57;18.30;99.90
1578;DHT22;57623;53.608;10.004;2022-07-12T08:33:49;18.40;99.90
1578;DHT22;57623;53.608;10.004;2022-07-12T08:36:42;18.40;99.90
1578;DHT22;57623;53.608;10.004;2022-07-12T08:39:30;18.50;99.90
1578;DHT22;57623;53.608;10.004;2022-07-12T08:42:19;18.40;99.90
1578;DHT22;57623;53.608;10.004;2022-07-12T08:45:19;18.50;99.90
1578;DHT22;57623;53.608;10.004;2022-07-12T08:48:08;18.60;99.90
1578;DHT22;57623;53.608;10.004;2022-07-12T08:51:07;18.60;99.90
1578;DHT22;57623;53.608;10.004;2022-07-12T08:54:08;18.60;99.90
1578;DHT22;57623;53.608;10.004;2022-07-12T08:56:58;18.60;99.90
1578;DHT22;57623;53.608;10.004;2022-07-12T08:59:58;18.70;99.90
1578;DHT22;57623;53.608;10.004;2022-07-12T09:02:48;18.80;99.90
1578;DHT22;57623;53.608;10.004;2022-07-12T09:08:55;18.80;99.90
1578;DHT22;57623;53.608;10.004;2022-07-12T09:11:47;18.80;99.90
1578;DHT22;57623;53.608;10.004;2022-07-12T09:14:38;18.80;99.90
1578;DHT22;57623;53.608;10.004;2022-07-12T09:17:26;18.90;99.90
1578;DHT22;57623;53.608;10.004;2022-07-12T09:20:16;18.80;99.90
1578;DHT22;57623;53.608;10.004;2022-07-12T09:23:08;18.80;99.90
1578;DHT22;57623;53.608;10.004;2022-07-12T09:25:59;18.90;99.90
1578;DHT22;57623;53.608;10.004;2022-07-12T09:28:50;18.90;99.90
1578;DHT22;57623;53.608;10.004;2022-07-12T09:31:43;18.90;99.90
1578;DHT22;57623;53.608;10.004;2022-07-12T09:34:55;19.00;99.90
1578;DHT22;57623;53.608;10.004;2022-07-12T09:38:08;18.90;99.90
1578;DHT22;57623;53.608;10.004;2022-07-12T09:41:01;19.00;99.90
1578;DHT22;57623;53.608;10.004;2022-07-12T09:43:52;19.00;99.90
1578;DHT22;57623;53.608;10.004;2022-07-12T09:46:48;19.10;99.90
1578;DHT22;57623;53.608;10.004;2022-07-12T09:49:37;19.20;99.90
1578;DHT22;57623;53.608;10.004;2022-07-12T09:52:45;19.20;99.90
1578;DHT22;57623;53.608;10.004;2022-07-12T09:55:56;19.20;99.90
1578;DHT22;57623;53.608;10.004;2022-07-12T09:58:55;19.30;99.90
1578;DHT22;57623;53.608;10.004;2022-07-12T10:01:50;19.30;99.90
1578;DHT22;57623;53.608;10.004;2022-07-12T10:04:42;19.40;99.90
1578;DHT22;57623;53.608;10.004;2022-07-12T10:07:33;19.50;99.90
1578;DHT22;57623;53.608;10.004;2022-07-12T10:10:29;19.60;99.90
1578;DHT22;57623;53.608;10.004;2022-07-12T10:13:38;19.70;99.90
1578;DHT22;57623;53.608;10.004;2022-07-12T10:16:37;19.80;99.90
1578;DHT22;57623;53.608;10.004;2022-07-12T10:19:31;19.90;99.90
1578;DHT22;57623;53.608;10.004;2022-07-12T10:32:33;20.20;99.90
1578;DHT22;57623;53.608;10.004;2022-07-12T10:35:25;20.40;99.90
1578;DHT22;57623;53.608;10.004;2022-07-12T10:38:30;20.50;99.90
1578;DHT22;57623;53.608;10.004;2022-07-12T10:41:20;20.60;99.90
1578;DHT22;57623;53.608;10.004;2022-07-12T10:44:08;20.70;99.90
1578;DHT22;57623;53.608;10.004;2022-07-12T10:46:59;20.80;99.90
1578;DHT22;57623;53.608;10.004;2022-07-12T10:49:51;20.90;99.90
1578;DHT22;57623;53.608;10.004;2022-07-12T10:52:40;21.00;99.90
1578;DHT22;57623;53.608;10.004;2022-07-12T10:55:28;21.00;99.90
1578;DHT22;57623;53.608;10.004;2022-07-12T10:58:29;21.10;99.90
1578;DHT22;57623;53.608;10.004;2022-07-12T11:01:19;21.10;99.90
1578;DHT22;57623;53.608;10.004;2022-07-12T11:04:27;21.20;99.90
1578;DHT22;57623;53.608;10.004;2022-07-12T11:07:18;21.20;99.90
1578;DHT22;57623;53.608;10.004;2022-07-12T11:10:06;21.30;99.90
1578;DHT22;57623;53.608;10.004;2022-07-12T11:12:55;21.40;99.90
1578;DHT22;57623;53.608;10.004;2022-07-12T11:15:55;21.50;99.90
1578;DHT22;57623;53.608;10.004;2022-07-12T11:18:44;21.60;99.90
1578;DHT22;57623;53.608;10.004;2022-07-12T11:21:33;21.80;99.90
1578;DHT22;57623;53.608;10.004;2022-07-12T11:24:24;21.90;99.90
1578;DHT22;57623;53.608;10.004;2022-07-12T11:27:13;22.00;99.90
1578;DHT22;57623;53.608;10.004;2022-07-12T11:30:03;22.10;99.90
1578;DHT22;57623;53.608;10.004;2022-07-12T11:32:51;22.20;99.90
1578;DHT22;57623;53.608;10.004;2022-07-12T11:35:58;22.30;99.90
1578;DHT22;57623;53.608;10.004;2022-07-12T11:38:47;22.40;99.90
1578;DHT22;57623;53.608;10.004;2022-07-12T11:41:36;22.50;99.90
1578;DHT22;57623;53.608;10.004;2022-07-12T11:44:41;22.60;99.90
1578;DHT22;57623;53.608;10.004;2022-07-12T11:47:32;22.70;99.90
1578;DHT22;57623;53.608;10.004;2022-07-12T11:50:41;22.80;99.90
1578;DHT22;57623;53.608;10.004;2022-07-12T11:53:32;23.00;99.90
1578;DHT22;57623;53.608;10.004;2022-07-12T11:56:29;23.10;99.90
1578;DHT22;57623;53.608;10.004;2022-07-12T11:59:23;23.20;99.90
1578;DHT22;57623;53.608;10.004;2022-07-12T12:02:13;23.30;99.90
1578;DHT22;57623;53.608;10.004;2022-07-12T12:05:03;23.40;99.90
1578;DHT22;57623;53.608;10.004;2022-07-12T12:11:00;23.60;99.90
1578;DHT22;57623;53.608;10.004;2022-07-12T12:13:56;23.80;99.90
1578;DHT22;57623;53.608;10.004;2022-07-12T12:16:49;23.90;99.90
1578;DHT22;57623;53.608;10.004;2022-07-12T12:19:55;24.00;99.90
1578;DHT22;57623;53.608;10.004;2022-07-12T12:22:43;24.10;99.90
1578;DHT22;57623;53.608;10.004;2022-07-12T12:25:33;24.20;99.90
1578;DHT22;57623;53.608;10.004;2022-07-12T12:28:24;24.30;99.90
1578;DHT22;57623;53.608;10.004;2022-07-12T12:31:15;24.40;99.90
1578;DHT22;57623;53.608;10.004;2022-07-12T12:34:10;24.50;99.90
1578;DHT22;57623;53.608;10.004;2022-07-12T12:37:03;24.50;99.90
1578;DHT22;57623;53.608;10.004;2022-07-12T12:39:52;24.60;99.90
1578;DHT22;57623;53.608;10.004;2022-07-12T12:43:08;24.70;99.90
1578;DHT22;57623;53.608;10.004;2022-07-12T12:45:56;24.80;99.90
1578;DHT22;57623;53.608;10.004;2022-07-12T12:48:48;24.80;99.90
1578;DHT22;57623;53.608;10.004;2022-07-12T12:51:53;24.90;99.90
1578;DHT22;57623;53.608;10.004;2022-07-12T12:54:42;25.00;99.90
1578;DHT22;57623;53.608;10.004;2022-07-12T12:57:32;25.10;99.90
1578;DHT22;57623;53.608;10.004;2022-07-12T13:00:23;25.10;99.90
1578;DHT22;57623;53.608;10.004;2022-07-12T13:03:29;25.20;99.90
1578;DHT22;57623;53.608;10.004;2022-07-12T13:06:19;25.30;99.90
1578;DHT22;57623;53.608;10.004;2022-07-12T13:09:26;25.50;99.90
1578;DHT22;57623;53.608;10.004;2022-07-12T13:12:16;25.50;99.90
1578;DHT22;57623;53.608;10.004;2022-07-12T13:15:04;25.60;99.90
1578;DHT22;57623;53.608;10.004;2022-07-12T13:18:13;25.70;99.90
1578;DHT22;57623;53.608;10.004;2022-07-12T13:21:03;25.80;99.90
1578;DHT22;57623;53.608;10.004;2022-07-12T13:23:51;25.80;99.90
1578;DHT22;57623;53.608;10.004;2022-07-12T13:26:41;25.90;99.90
1578;DHT22;57623;53.608;10.004;2022-07-12T13:29:51;25.90;99.90
1578;DHT22;57623;53.608;10.004;2022-07-12T13:32:59;26.00;99.90
1578;DHT22;57623;53.608;10.004;2022-07-12T13:35:50;26.10;99.90
1578;DHT22;57623;53.608;10.004;2022-07-12T13:38:38;26.20;99.90
1578;DHT22;57623;53.608;10.004;2022-07-12T13:41:27;26.30;99.90
1578;DHT22;57623;53.608;10.004;2022-07-12T13:44:16;26.30;99.90
1578;DHT22;57623;53.608;10.004;2022-07-12T13:47:09;26.40;99.90
1578;DHT22;57623;53.608;10.004;2022-07-12T13:49:58;26.50;99.90
1578;DHT22;57623;53.608;10.004;2022-07-12T13:52:49;26.70;99.90
1578;DHT22;57623;53.608;10.004;2022-07-12T13:55:41;26.80;99.90
1578;DHT22;57623;53.608;10.004;2022-07-12T13:58:32;27.00;99.90
1578;DHT22;57623;53.608;10.004;2022-07-12T14:01:26;27.10;99.90
1578;DHT22;57623;53.608;10.004;2022-07-12T14:04:17;27.20;99.90
1578;DHT22;57623;53.608;10.004;2022-07-12T14:07:06;27.30;99.90
1578;DHT22;57623;53.608;10.004;2022-07-12T14:09:54;27.40;99.90
1578;DHT22;57623;53.608;10.004;2022-07-12T14:12:42;27.30;99.90
1578;DHT22;57623;53.608;10.004;2022-07-12T14:15:52;27.30;99.90
1578;DHT22;57623;53.608;10.004;2022-07-12T14:18:42;27.30;99.90
1578;DHT22;57623;53.608;10.004;2022-07-12T14:21:34;27.40;99.90
1578;DHT22;57623;53.608;10.004;2022-07-12T14:24:23;27.50;99.90
1578;DHT22;57623;53.608;10.004;2022-07-12T14:27:11;27.70;99.90
1578;DHT22;57623;53.608;10.004;2022-07-12T14:30:00;27.70;99.90
1578;DHT22;57623;53.608;10.004;2022-07-12T14:32:48;27.60;99.90
1578;DHT22;57623;53.608;10.004;2022-07-12T14:35:41;27.70;99.90
1578;DHT22;57623;53.608;10.004;2022-07-12T14:38:29;27.80;99.90
1578;DHT22;57623;53.608;10.004;2022-07-12T14:41:19;28.00;99.90
1578;DHT22;57623;53.608;10.004;2022-07-12T14:44:30;28.10;99.90
1578;DHT22;57623;53.608;10.004;2022-07-12T14:47:18;28.20;99.90
1578;DHT22;57623;53.608;10.004;2022-07-12T14:50:07;28.20;99.90
1578;DHT22;57623;53.608;10.004;2022-07-12T14:52:57;28.30;99.90
1578;DHT22;57623;53.608;10.004;2022-07-12T14:55:48;28.20;99.90
1578;DHT22;57623;53.608;10.004;2022-07-12T14:58:36;28.20;99.90
1578;DHT22;57623;53.608;10.004;2022-07-12T15:01:25;28.10;99.90
1578;DHT22;57623;53.608;10.004;2022-07-12T15:04:16;28.10;99.90
1578;DHT22;57623;53.608;10.004;2022-07-12T15:07:06;28.10;99.90
1578;DHT22;57623;53.608;10.004;2022-07-12T15:10:00;28.10;99.90
1578;DHT22;57623;53.608;10.004;2022-07-12T15:16:13;28.10;99.90
1578;DHT22;57623;53.608;10.004;2022-07-12T15:19:06;28.10;99.90
1578;DHT22;57623;53.608;10.004;2022-07-12T15:21:54;28.00;99.90
1578;DHT22;57623;53.608;10.004;2022-07-12T15:24:43;27.90;99.90
1578;DHT22;57623;53.608;10.004;2022-07-12T15:27:36;27.90;99.90
1578;DHT22;57623;53.608;10.004;2022-07-12T15:30:24;27.90;99.90
1578;DHT22;57623;53.608;10.004;2022-07-12T15:33:14;27.80;99.90
1578;DHT22;57623;53.608;10.004;2022-07-12T15:36:05;27.80;99.90
1578;DHT22;57623;53.608;10.004;2022-07-12T15:38:54;27.80;99.90
1578;DHT22;57623;53.608;10.004;2022-07-12T15:41:44;27.90;99.90
1578;DHT22;57623;53.608;10.004;2022-07-12T15:44:37;27.90;99.90
1578;DHT22;57623;53.608;10.004;2022-07-12T15:47:25;27.80;99.90
1578;DHT22;57623;53.608;10.004;2022-07-12T15:50:15;27.80;99.90
1578;DHT22;57623;53.608;10.004;2022-07-12T15:53:05;27.80;99.90
1578;DHT22;57623;53.608;10.004;2022-07-12T15:56:11;27.70;99.90
1578;DHT22;57623;53.608;10.004;2022-07-12T15:59:17;27.80;99.90
1578;DHT22;57623;53.608;10.004;2022-07-12T16:02:09;27.90;99.90
1578;DHT22;57623;53.608;10.004;2022-07-12T16:05:10;27.90;99.90
1578;DHT22;57623;53.608;10.004;2022-07-12T16:08:08;28.00;99.90
1578;DHT22;57623;53.608;10.004;2022-07-12T16:10:57;28.10;99.90
1578;DHT22;57623;53.608;10.004;2022-07-12T16:14:04;28.20;99.90
1578;DHT22;57623;53.608;10.004;2022-07-12T16:17:14;28.10;99.90
1578;DHT22;57623;53.608;10.004;2022-07-12T16:20:06;28.10;99.90
1578;DHT22;57623;53.608;10.004;2022-07-12T16:23:01;28.10;99.90
1578;DHT22;57623;53.608;10.004;2022-07-12T16:26:09;28.10;99.90
1578;DHT22;57623;53.608;10.004;2022-07-12T16:28:58;27.90;99.90
1578;DHT22;57623;53.608;10.004;2022-07-12T16:31:49;27.90;99.90
1578;DHT22;57623;53.608;10.004;2022-07-12T16:35:01;27.90;99.90
1578;DHT22;57623;53.608;10.004;2022-07-12T16:37:53;27.90;99.90
1578;DHT22;57623;53.608;10.004;2022-07-12T16:40:42;27.80;99.90
1578;DHT22;57623;53.608;10.004;2022-07-12T16:43:35;27.70;99.90
1578;DHT22;57623;53.608;10.004;2022-07-12T16:46:26;27.60;99.90
1578;DHT22;57623;53.608;10.004;2022-07-12T16:49:24;27.60;99.90
1578;DHT22;57623;53.608;10.004;2022-07-12T16:52:13;27.60;99.90
1578;DHT22;57623;53.608;10.004;2022-07-12T16:55:08;27.60;99.90
1578;DHT22;57623;53.608;10.004;2022-07-12T16:58:20;27.60;99.90
1578;DHT22;57623;53.608;10.004;2022-07-12T17:01:11;27.60;99.90
1578;DHT22;57623;53.608;10.004;2022-07-12T17:04:00;27.50;99.90
1578;DHT22;57623;53.608;10.004;2022-07-12T17:06:51;27.50;99.90
1578;DHT22;57623;53.608;10.004;2022-07-12T17:09:44;27.40;99.90
1578;DHT22;57623;53.608;10.004;2022-07-12T17:12:35;27.30;99.90
1578;DHT22;57623;53.608;10.004;2022-07-12T17:15:27;27.10;99.90
1578;DHT22;57623;53.608;10.004;2022-07-12T17:18:15;26.90;99.90
1578;DHT22;57623;53.608;10.004;2022-07-12T17:21:04;26.80;99.90
1578;DHT22;57623;53.608;10.004;2022-07-12T17:23:52;26.70;99.90
1578;DHT22;57623;53.608;10.004;2022-07-12T17:27:00;26.60;99.90
1578;DHT22;57623;53.608;10.004;2022-07-12T17:30:07;26.50;99.90
1578;DHT22;57623;53.608;10.004;2022-07-12T17:33:04;26.40;99.90
1578;DHT22;57623;53.608;10.004;2022-07-12T17:35:54;26.30;99.90
1578;DHT22;57623;53.608;10.004;2022-07-12T17:38:42;26.30;99.90
1578;DHT22;57623;53.608;10.004;2022-07-12T17:41:37;26.20;99.90
1578;DHT22;57623;53.608;10.004;2022-07-12T17:44:31;26.00;99.90
1578;DHT22;57623;53.608;10.004;2022-07-12T17:47:40;25.90;99.90
1578;DHT22;57623;53.608;10.004;2022-07-12T17:50:30;25.80;99.90
1578;DHT22;57623;53.608;10.004;2022-07-12T17:53:20;25.80;99.90
1578;DHT22;57623;53.608;10.004;2022-07-12T17:56:11;25.70;99.90
1578;DHT22;57623;53.608;10.004;2022-07-12T17:59:02;25.70;99.90
1578;DHT22;57623;53.608;10.004;2022-07-12T18:02:02;25.50;99.90
1578;DHT22;57623;53.608;10.004;2022-07-12T18:04:59;25.50;99.90
1578;DHT22;57623;53.608;10.004;2022-07-12T18:07:51;25.40;99.90
1578;DHT22;57623;53.608;10.004;2022-07-12T18:10:42;25.30;99.90
1578;DHT22;57623;53.608;10.004;2022-07-12T18:13:50;25.30;99.90
1578;DHT22;57623;53.608;10.004;2022-07-12T18:17:00;25.10;99.90
1578;DHT22;57623;53.608;10.004;2022-07-12T18:20:10;25.10;99.90
1578;DHT22;57623;53.608;10.004;2022-07-12T18:23:03;25.00;99.90
1578;DHT22;57623;53.608;10.004;2022-07-12T18:25:54;24.90;99.90
1578;DHT22;57623;53.608;10.004;2022-07-12T18:28:44;24.80;99.90
1578;DHT22;57623;53.608;10.004;2022-07-12T18:31:37;24.70;99.90
